createdAt,value
2019-05-14T00:00:13.849Z,4.54
2019-05-14T00:02:43.250Z,4.54
2019-05-14T00:05:12.782Z,4.59
2019-05-14T00:07:42.566Z,4.52
2019-05-14T00:10:12.664Z,4.49
2019-05-14T00:12:42.152Z,4.47
2019-05-14T00:15:12.155Z,4.51
2019-05-14T00:17:41.884Z,4.63
2019-05-14T00:20:13.303Z,4.64
2019-05-14T00:22:42.870Z,4.65
2019-05-14T00:25:12.398Z,4.64
2019-05-14T00:27:42.155Z,4.68
2019-05-14T00:30:12.135Z,4.75
2019-05-14T00:32:43.136Z,4.97
2019-05-14T00:35:12.614Z,4.89
2019-05-14T00:37:42.096Z,4.72
2019-05-14T00:40:12.102Z,4.67
2019-05-14T00:42:41.748Z,4.65
2019-05-14T00:45:11.848Z,4.58
2019-05-14T00:47:42.003Z,4.62
2019-05-14T00:50:12.208Z,4.67
2019-05-14T00:52:44.221Z,4.66
2019-05-14T00:55:13.164Z,4.65
2019-05-14T00:57:42.859Z,4.62
2019-05-14T01:00:12.721Z,4.63
2019-05-14T01:02:42.225Z,4.70
2019-05-14T01:05:12.436Z,4.86
2019-05-14T01:07:42.522Z,4.77
2019-05-14T01:10:12.939Z,4.68
2019-05-14T01:12:42.381Z,4.58
2019-05-14T01:15:14.197Z,4.52
2019-05-14T01:17:44.077Z,4.40
2019-05-14T01:20:13.800Z,4.30
2019-05-14T01:22:43.239Z,4.22
2019-05-14T01:25:13.224Z,4.09
2019-05-14T01:27:42.826Z,4.09
2019-05-14T01:30:12.763Z,4.13
2019-05-14T01:32:42.470Z,4.10
2019-05-14T01:35:12.251Z,4.09
2019-05-14T01:37:41.905Z,4.00
2019-05-14T01:40:11.679Z,3.96
2019-05-14T01:42:41.796Z,3.93
2019-05-14T01:45:24.396Z,3.86
2019-05-14T01:47:42.947Z,3.84
2019-05-14T01:50:12.705Z,3.87
2019-05-14T01:52:42.613Z,3.88
2019-05-14T01:55:12.355Z,3.93
2019-05-14T01:57:42.480Z,4.06
2019-05-14T02:00:12.597Z,4.20
2019-05-14T02:02:42.044Z,4.28
2019-05-14T02:05:12.522Z,4.28
2019-05-14T02:07:42.294Z,4.19
2019-05-14T02:10:12.878Z,4.12
2019-05-14T02:12:45.268Z,4.13
2019-05-14T02:15:15.490Z,4.16
2019-05-14T02:17:45.001Z,4.22
2019-05-14T02:20:15.072Z,4.28
2019-05-14T02:22:44.631Z,4.31
2019-05-14T02:25:14.608Z,4.25
2019-05-14T02:27:44.322Z,4.26
2019-05-14T02:30:13.971Z,4.35
2019-05-14T02:32:43.475Z,4.41
2019-05-14T02:35:13.050Z,4.43
2019-05-14T02:37:43.041Z,4.47
2019-05-14T02:40:14.054Z,4.52
2019-05-14T02:42:44.141Z,4.51
2019-05-14T02:45:14.026Z,4.52
2019-05-14T02:47:43.419Z,4.59
2019-05-14T02:50:13.529Z,4.60
2019-05-14T02:52:42.959Z,4.65
2019-05-14T02:55:12.674Z,4.69
2019-05-14T02:57:42.218Z,4.68
2019-05-14T03:00:13.768Z,4.78
2019-05-14T03:02:43.199Z,4.74
2019-05-14T03:05:13.152Z,4.73
2019-05-14T03:07:42.570Z,4.71
2019-05-14T03:10:12.506Z,4.74
2019-05-14T03:12:42.070Z,4.78
2019-05-14T03:15:12.822Z,4.78
2019-05-14T03:17:42.355Z,4.80
2019-05-14T03:20:12.167Z,4.81
2019-05-14T03:22:55.849Z,4.81
2019-05-14T03:25:13.122Z,4.76
2019-05-14T03:27:42.732Z,4.77
2019-05-14T03:30:13.987Z,4.80
2019-05-14T03:32:43.687Z,4.98
2019-05-14T03:35:14.525Z,5.47
2019-05-14T03:37:44.463Z,5.38
2019-05-14T03:40:14.116Z,5.55
2019-05-14T03:42:43.582Z,5.52
2019-05-14T03:45:13.469Z,5.56
2019-05-14T03:47:43.206Z,5.53
2019-05-14T03:50:12.887Z,5.52
2019-05-14T03:52:42.454Z,5.44
2019-05-14T03:55:12.313Z,5.57
2019-05-14T03:57:41.791Z,5.64
2019-05-14T04:00:11.834Z,5.64
2019-05-14T04:02:41.272Z,5.58
2019-05-14T04:05:11.419Z,5.63
2019-05-14T04:07:42.813Z,5.64
2019-05-14T04:10:13.051Z,5.69
2019-05-14T04:12:45.119Z,5.82
2019-05-14T04:15:14.582Z,5.82
2019-05-14T04:17:45.658Z,5.78
2019-05-14T04:20:15.221Z,5.88
2019-05-14T04:22:50.054Z,5.91
2019-05-14T04:25:19.546Z,6.09
2019-05-14T04:27:52.240Z,6.30
2019-05-14T04:30:24.374Z,6.59
2019-05-14T04:32:59.148Z,6.71
2019-05-14T04:35:29.622Z,6.78
2019-05-14T04:37:58.964Z,6.80
2019-05-14T04:40:29.702Z,6.82
2019-05-14T04:42:59.358Z,6.84
2019-05-14T04:45:29.802Z,6.82
2019-05-14T04:48:00.396Z,6.92
2019-05-14T04:50:30.033Z,6.88
2019-05-14T04:53:00.031Z,6.98
2019-05-14T04:55:30.722Z,7.12
2019-05-14T04:58:00.439Z,7.24
2019-05-14T05:00:30.747Z,7.32
2019-05-14T05:03:00.381Z,7.35
2019-05-14T05:05:31.289Z,7.56
2019-05-14T05:08:00.922Z,7.63
2019-05-14T05:10:30.395Z,7.67
2019-05-14T05:12:59.831Z,7.75
2019-05-14T05:15:29.393Z,7.72
2019-05-14T05:17:59.158Z,7.83
2019-05-14T05:20:29.337Z,8.04
2019-05-14T05:22:59.173Z,8.59
2019-05-14T05:25:29.322Z,9.03
2019-05-14T05:27:59.778Z,9.53
2019-05-14T05:30:29.642Z,9.87
2019-05-14T05:32:59.788Z,9.91
2019-05-14T05:35:29.450Z,9.92
2019-05-14T05:37:58.849Z,10.03
2019-05-14T05:40:28.856Z,10.18
2019-05-14T05:42:58.460Z,10.24
2019-05-14T05:45:29.016Z,10.36
2019-05-14T05:48:01.625Z,10.52
2019-05-14T05:50:29.954Z,10.64
2019-05-14T05:53:00.005Z,10.66
2019-05-14T05:55:29.832Z,10.75
2019-05-14T05:57:59.224Z,10.92
2019-05-14T06:00:34.853Z,10.86
2019-05-14T06:03:04.866Z,10.88
2019-05-14T06:05:35.524Z,10.72
2019-05-14T06:08:05.160Z,10.92
2019-05-14T06:10:34.756Z,10.86
2019-05-14T06:13:04.639Z,10.64
2019-05-14T06:15:45.781Z,11.15
2019-05-14T06:18:15.216Z,11.34
2019-05-14T06:20:38.750Z,11.64
2019-05-14T06:23:08.552Z,11.62
2019-05-14T06:25:39.981Z,11.79
2019-05-14T06:28:09.430Z,12.01
2019-05-14T06:30:40.301Z,11.95
2019-05-14T06:33:09.715Z,11.90
2019-05-14T06:35:39.850Z,12.11
2019-05-14T06:38:09.483Z,12.14
2019-05-14T06:40:39.703Z,12.04
2019-05-14T06:43:09.342Z,11.80
2019-05-14T06:45:39.230Z,11.93
2019-05-14T06:48:08.912Z,11.87
2019-05-14T06:50:39.406Z,11.84
2019-05-14T06:53:08.942Z,12.00
2019-05-14T06:55:39.269Z,12.47
2019-05-14T06:58:09.304Z,12.32
2019-05-14T07:00:39.599Z,12.51
2019-05-14T07:03:09.181Z,12.63
2019-05-14T07:05:39.146Z,12.86
2019-05-14T07:08:09.212Z,12.58
2019-05-14T07:10:39.553Z,12.80
2019-05-14T07:13:09.054Z,12.71
2019-05-14T07:15:38.859Z,13.22
2019-05-14T07:18:08.719Z,13.64
2019-05-14T07:20:39.146Z,13.39
2019-05-14T07:23:08.901Z,13.15
2019-05-14T07:25:39.279Z,13.18
2019-05-14T07:28:09.044Z,13.79
2019-05-14T07:30:41.386Z,13.73
2019-05-14T07:33:10.840Z,13.65
2019-05-14T07:35:40.442Z,14.17
2019-05-14T07:38:10.012Z,13.89
2019-05-14T07:40:39.518Z,13.92
2019-05-14T07:43:09.273Z,14.60
2019-05-14T07:45:39.260Z,14.29
2019-05-14T07:48:09.672Z,14.02
2019-05-14T07:50:39.915Z,13.71
2019-05-14T07:53:09.582Z,14.23
2019-05-14T07:55:39.090Z,13.94
2019-05-14T07:58:08.564Z,14.48
2019-05-14T08:00:41.439Z,14.29
2019-05-14T08:03:09.283Z,14.02
2019-05-14T08:05:39.205Z,14.50
2019-05-14T08:08:10.306Z,14.50
2019-05-14T08:10:39.839Z,14.72
2019-05-14T08:13:09.283Z,14.43
2019-05-14T08:15:38.858Z,13.79
2019-05-14T08:18:08.570Z,14.05
2019-05-14T08:20:38.178Z,14.71
2019-05-14T08:23:09.055Z,15.23
2019-05-14T08:25:39.092Z,13.42
2019-05-14T08:28:08.744Z,14.44
2019-05-14T08:30:38.886Z,14.70
2019-05-14T08:33:09.015Z,15.37
2019-05-14T08:35:39.559Z,15.57
2019-05-14T08:38:12.086Z,14.82
2019-05-14T08:40:40.426Z,14.89
2019-05-14T08:43:10.104Z,14.50
2019-05-14T08:45:39.542Z,13.44
2019-05-14T08:48:09.304Z,13.94
2019-05-14T08:50:38.969Z,13.96
2019-05-14T08:53:09.175Z,14.95
2019-05-14T08:55:39.519Z,15.89
2019-05-14T08:58:13.589Z,14.46
2019-05-14T09:00:43.611Z,13.87
2019-05-14T09:03:13.194Z,15.53
2019-05-14T09:05:42.859Z,15.53
2019-05-14T09:08:12.286Z,16.59
2019-05-14T09:10:41.730Z,16.59
2019-05-14T09:13:11.158Z,16.29
2019-05-14T09:15:40.598Z,15.58
2019-05-14T09:18:11.671Z,16.29
2019-05-14T09:20:41.464Z,15.87
2019-05-14T09:23:10.904Z,15.73
2019-05-14T09:25:47.848Z,15.46
2019-05-14T09:28:11.539Z,16.10
2019-05-14T09:30:41.202Z,16.05
2019-05-14T09:33:10.791Z,15.30
2019-05-14T09:35:40.272Z,15.70
2019-05-14T09:38:09.721Z,15.70
2019-05-14T09:40:39.903Z,15.62
2019-05-14T09:43:09.543Z,17.09
2019-05-14T09:45:39.686Z,17.09
2019-05-14T09:48:09.183Z,16.53
2019-05-14T09:50:38.865Z,16.93
2019-05-14T09:53:09.666Z,17.61
2019-05-14T09:55:39.366Z,16.33
2019-05-14T09:58:08.958Z,16.71
2019-05-14T10:00:39.204Z,17.45
2019-05-14T10:03:09.817Z,16.59
2019-05-14T10:05:39.407Z,17.31
2019-05-14T10:08:09.708Z,17.69
2019-05-14T10:10:39.945Z,18.03
2019-05-14T10:13:10.009Z,17.11
2019-05-14T10:15:39.527Z,17.56
2019-05-14T10:18:11.770Z,17.43
2019-05-14T10:20:45.546Z,17.45
2019-05-14T10:23:11.167Z,17.33
2019-05-14T10:25:42.443Z,15.12
2019-05-14T10:28:12.016Z,14.99
2019-05-14T10:30:41.459Z,15.99
2019-05-14T10:33:15.005Z,16.77
2019-05-14T10:35:42.274Z,17.54
2019-05-14T10:38:11.888Z,17.57
2019-05-14T10:40:41.555Z,16.62
2019-05-14T10:43:10.963Z,16.67
2019-05-14T10:45:40.499Z,17.57
2019-05-14T10:48:09.908Z,18.23
2019-05-14T10:50:55.658Z,17.46
2019-05-14T10:53:10.423Z,17.64
2019-05-14T10:55:39.999Z,17.08
2019-05-14T10:58:09.404Z,17.96
2019-05-14T11:00:41.803Z,16.81
2019-05-14T11:03:10.033Z,16.23
2019-05-14T11:05:41.548Z,16.17
2019-05-14T11:08:11.948Z,16.63
2019-05-14T11:10:42.596Z,17.46
2019-05-14T11:13:12.237Z,17.26
2019-05-14T11:15:41.717Z,17.26
2019-05-14T11:18:11.103Z,16.53
2019-05-14T11:20:42.122Z,16.60
2019-05-14T11:23:12.006Z,17.11
2019-05-14T11:25:41.585Z,17.63
2019-05-14T11:28:12.970Z,17.40
2019-05-14T11:30:42.448Z,17.66
2019-05-14T11:33:11.975Z,17.48
2019-05-14T11:35:41.368Z,17.72
2019-05-14T11:38:27.911Z,17.58
2019-05-14T11:40:42.401Z,18.18
2019-05-14T11:43:11.848Z,18.42
2019-05-14T11:45:41.235Z,17.04
2019-05-14T11:48:10.734Z,17.81
2019-05-14T11:50:40.203Z,17.85
2019-05-14T11:53:09.640Z,18.09
2019-05-14T11:55:39.043Z,17.45
2019-05-14T11:58:08.847Z,17.78
2019-05-14T12:00:38.862Z,18.77
2019-05-14T12:03:09.292Z,18.69
2019-05-14T12:05:38.989Z,18.30
2019-05-14T12:08:08.717Z,17.85
2019-05-14T12:10:38.827Z,18.09
2019-05-14T12:13:08.714Z,17.92
2019-05-14T12:15:38.826Z,18.00
2019-05-14T12:18:10.420Z,17.74
2019-05-14T12:20:39.881Z,17.89
2019-05-14T12:23:09.370Z,17.81
2019-05-14T12:25:39.047Z,17.45
2019-05-14T12:28:13.637Z,17.47
2019-05-14T12:30:39.805Z,17.62
2019-05-14T12:33:09.251Z,17.46
2019-05-14T12:35:40.244Z,17.45
2019-05-14T12:38:11.685Z,17.39
2019-05-14T12:40:42.827Z,18.79
2019-05-14T12:43:12.375Z,17.89
2019-05-14T12:45:41.838Z,17.21
2019-05-14T12:48:11.367Z,17.80
2019-05-14T12:50:40.790Z,17.11
2019-05-14T12:53:10.378Z,16.88
2019-05-14T12:55:40.341Z,17.15
2019-05-14T12:58:09.962Z,17.15
2019-05-14T13:00:39.661Z,16.93
2019-05-14T13:03:09.320Z,16.93
2019-05-14T13:05:38.907Z,16.50
2019-05-14T13:08:11.442Z,16.59
2019-05-14T13:10:41.286Z,16.41
2019-05-14T13:13:10.734Z,16.41
2019-05-14T13:15:40.267Z,16.24
2019-05-14T13:18:09.702Z,16.38
2019-05-14T13:20:39.125Z,17.50
2019-05-14T13:23:10.110Z,18.38
2019-05-14T13:25:39.836Z,18.38
2019-05-14T13:28:09.329Z,18.04
2019-05-14T13:30:38.775Z,17.40
2019-05-14T13:33:08.977Z,16.51
2019-05-14T13:35:40.038Z,16.89
2019-05-14T13:38:14.426Z,17.20
2019-05-14T13:40:40.845Z,17.13
2019-05-14T13:43:14.145Z,17.13
2019-05-14T13:45:41.487Z,17.27
2019-05-14T13:48:12.585Z,17.33
2019-05-14T13:50:42.020Z,16.77
2019-05-14T13:53:12.993Z,16.57
2019-05-14T13:55:45.758Z,16.06
2019-05-14T13:58:14.128Z,16.12
2019-05-14T14:00:43.574Z,16.12
2019-05-14T14:03:12.976Z,16.22
2019-05-14T14:05:42.407Z,16.29
2019-05-14T14:08:11.806Z,16.29
2019-05-14T14:10:45.232Z,16.03
2019-05-14T14:13:19.839Z,15.66
2019-05-14T14:15:49.032Z,14.98
2019-05-14T14:18:20.944Z,15.17
2019-05-14T14:20:49.781Z,15.44
2019-05-14T14:23:26.964Z,15.58
2019-05-14T14:25:54.759Z,15.63
2019-05-14T14:28:23.180Z,15.00
2019-05-14T14:30:52.865Z,15.11
2019-05-14T14:33:22.289Z,15.13
2019-05-14T14:35:51.796Z,15.07
2019-05-14T14:38:21.237Z,14.80
2019-05-14T14:40:50.746Z,15.05
2019-05-14T14:43:20.197Z,15.09
2019-05-14T14:45:51.356Z,14.85
2019-05-14T14:48:21.739Z,14.99
2019-05-14T14:50:51.264Z,15.11
2019-05-14T14:53:39.755Z,14.89
2019-05-14T14:55:51.846Z,15.06
2019-05-14T14:58:21.260Z,14.73
2019-05-14T15:00:50.721Z,14.82
2019-05-14T15:03:21.262Z,14.56
2019-05-14T15:05:51.037Z,14.47
2019-05-14T15:08:20.911Z,14.71
2019-05-14T15:10:50.315Z,15.02
2019-05-14T15:13:21.637Z,15.16
2019-05-14T15:15:51.209Z,15.01
2019-05-14T15:18:21.159Z,14.90
2019-05-14T15:20:50.827Z,14.60
2019-05-14T15:23:20.263Z,14.54
2019-05-14T15:25:49.664Z,14.35
2019-05-14T15:28:21.153Z,15.00
2019-05-14T15:30:50.599Z,15.32
2019-05-14T15:33:19.994Z,15.24
2019-05-14T15:35:49.427Z,15.41
2019-05-14T15:38:18.855Z,15.06
2019-05-14T15:40:48.995Z,15.00
2019-05-14T15:43:18.868Z,14.65
2019-05-14T15:45:48.460Z,14.47
2019-05-14T15:48:19.986Z,14.36
2019-05-14T15:50:50.186Z,14.03
2019-05-14T15:53:19.822Z,14.06
2019-05-14T15:55:50.104Z,13.63
2019-05-14T15:58:21.509Z,13.49
2019-05-14T16:00:50.802Z,13.66
2019-05-14T16:03:20.200Z,13.77
2019-05-14T16:05:51.185Z,13.47
2019-05-14T16:08:22.932Z,13.39
2019-05-14T16:10:52.059Z,13.89
2019-05-14T16:13:21.465Z,13.65
2019-05-14T16:15:50.900Z,13.54
2019-05-14T16:18:22.406Z,13.54
2019-05-14T16:20:51.503Z,13.41
2019-05-14T16:23:22.642Z,13.36
2019-05-14T16:25:52.241Z,13.20
2019-05-14T16:28:21.700Z,13.05
2019-05-14T16:30:51.134Z,13.18
2019-05-14T16:33:22.104Z,13.13
2019-05-14T16:35:51.583Z,13.10
2019-05-14T16:38:23.061Z,12.73
2019-05-14T16:40:52.150Z,12.68
2019-05-14T16:43:23.111Z,12.46
2019-05-14T16:45:52.870Z,12.57
2019-05-14T16:48:22.312Z,12.51
2019-05-14T16:50:51.741Z,12.37
2019-05-14T16:53:21.300Z,12.18
2019-05-14T16:55:50.753Z,12.20
2019-05-14T16:58:20.188Z,12.08
2019-05-14T17:00:49.838Z,12.05
2019-05-14T17:03:19.386Z,11.93
2019-05-14T17:05:48.882Z,11.71
2019-05-14T17:08:19.027Z,11.54
2019-05-14T17:10:48.671Z,11.45
2019-05-14T17:13:18.396Z,11.39
2019-05-14T17:15:48.203Z,11.36
2019-05-14T17:18:19.272Z,11.25
2019-05-14T17:20:49.004Z,11.21
2019-05-14T17:23:19.272Z,11.15
2019-05-14T17:25:50.418Z,11.08
2019-05-14T17:28:21.328Z,11.02
2019-05-14T17:30:50.782Z,10.92
2019-05-14T17:33:20.357Z,10.80
2019-05-14T17:35:49.790Z,10.77
2019-05-14T17:38:19.308Z,10.72
2019-05-14T17:40:49.016Z,10.68
2019-05-14T17:43:20.143Z,10.68
2019-05-14T17:45:50.364Z,10.67
2019-05-14T17:48:19.808Z,10.68
2019-05-14T17:50:50.847Z,10.69
2019-05-14T17:53:20.306Z,10.65
2019-05-14T17:55:52.759Z,10.64
2019-05-14T17:58:22.390Z,10.61
2019-05-14T18:00:51.900Z,10.59
2019-05-14T18:03:21.716Z,10.56
2019-05-14T18:05:51.206Z,10.55
2019-05-14T18:08:22.329Z,10.54
2019-05-14T18:10:51.740Z,10.49
2019-05-14T18:13:21.198Z,10.50
2019-05-14T18:15:50.830Z,10.48
2019-05-14T18:18:20.344Z,10.44
2019-05-14T18:20:49.747Z,10.41
2019-05-14T18:23:19.242Z,10.38
2019-05-14T18:26:03.398Z,10.32
2019-05-14T18:28:19.800Z,10.24
2019-05-14T18:30:49.230Z,10.18
2019-05-14T18:33:18.911Z,10.05
2019-05-14T18:35:51.355Z,9.95
2019-05-14T18:38:22.761Z,9.91
2019-05-14T18:40:52.228Z,9.73
2019-05-14T18:43:21.646Z,9.64
2019-05-14T18:45:51.079Z,9.49
2019-05-14T18:48:20.532Z,9.53
2019-05-14T18:50:50.145Z,9.51
2019-05-14T18:53:19.676Z,9.40
2019-05-14T18:55:49.192Z,9.34
2019-05-14T18:58:19.520Z,9.25
2019-05-14T19:00:49.226Z,9.22
2019-05-14T19:03:20.609Z,9.13
2019-05-14T19:05:50.038Z,9.10
2019-05-14T19:08:19.427Z,9.18
2019-05-14T19:10:49.578Z,9.00
2019-05-14T19:13:19.405Z,8.92
2019-05-14T19:15:48.933Z,8.84
2019-05-14T19:18:19.240Z,8.71
2019-05-14T19:20:48.828Z,8.69
2019-05-14T19:23:18.873Z,8.60
2019-05-14T19:25:48.584Z,8.51
2019-05-14T19:28:18.766Z,8.41
2019-05-14T19:30:48.921Z,8.37
2019-05-14T19:33:20.607Z,8.35
2019-05-14T19:35:49.900Z,8.35
2019-05-14T19:38:19.342Z,8.26
2019-05-14T19:40:48.758Z,8.22
2019-05-14T19:43:19.054Z,8.16
2019-05-14T19:45:48.761Z,7.98
2019-05-14T19:48:19.029Z,7.79
2019-05-14T19:50:50.137Z,7.72
2019-05-14T19:53:19.580Z,7.49
2019-05-14T19:55:48.979Z,7.35
2019-05-14T19:58:20.075Z,7.43
2019-05-14T20:00:50.053Z,7.22
2019-05-14T20:03:20.672Z,7.21
2019-05-14T20:05:50.031Z,7.20
2019-05-14T20:08:19.468Z,7.31
2019-05-14T20:10:49.170Z,7.31
2019-05-14T20:13:19.455Z,7.22
2019-05-14T20:15:49.090Z,7.05
2019-05-14T20:18:18.533Z,6.98
2019-05-14T20:20:49.252Z,6.99
2019-05-14T20:23:18.839Z,6.96
2019-05-14T20:25:48.364Z,7.15
2019-05-14T20:28:19.013Z,7.11
2019-05-14T20:30:49.422Z,7.08
2019-05-14T20:33:19.259Z,7.15
2019-05-14T20:35:48.931Z,7.20
2019-05-14T20:38:18.737Z,7.15
2019-05-14T20:40:48.721Z,7.04
2019-05-14T20:43:18.782Z,6.93
2019-05-14T20:45:48.961Z,6.95
2019-05-14T20:48:19.440Z,7.07
2019-05-14T20:50:48.835Z,7.04
2019-05-14T20:53:18.782Z,7.11
2019-05-14T20:55:48.374Z,7.20
2019-05-14T20:58:19.853Z,7.19
2019-05-14T21:00:48.963Z,7.14
2019-05-14T21:03:20.129Z,7.17
2019-05-14T21:05:49.592Z,7.16
2019-05-14T21:08:20.792Z,7.04
2019-05-14T21:10:50.198Z,7.19
2019-05-14T21:13:19.666Z,7.05
2019-05-14T21:15:49.082Z,7.11
2019-05-14T21:18:19.074Z,7.10
2019-05-14T21:20:49.097Z,6.94
2019-05-14T21:23:18.951Z,7.13
2019-05-14T21:25:48.506Z,7.15
2019-05-14T21:28:18.024Z,7.15
2019-05-14T21:30:48.521Z,7.20
2019-05-14T21:33:18.199Z,7.15
2019-05-14T21:35:48.485Z,7.16
2019-05-14T21:38:19.216Z,7.09
2019-05-14T21:40:49.952Z,7.06
2019-05-14T21:43:19.635Z,7.00
2019-05-14T21:45:49.101Z,6.89
2019-05-14T21:48:19.933Z,6.95
2019-05-14T21:50:49.718Z,7.07
2019-05-14T21:53:19.782Z,7.16
2019-05-14T21:55:49.259Z,7.29
2019-05-14T21:58:19.826Z,7.34
2019-05-14T22:00:52.715Z,7.25
2019-05-14T22:03:22.308Z,7.19
2019-05-14T22:05:51.900Z,7.13
2019-05-14T22:08:21.497Z,7.08
2019-05-14T22:10:50.983Z,7.04
2019-05-14T22:13:20.442Z,7.38
2019-05-14T22:15:49.969Z,7.42
2019-05-14T22:18:20.772Z,7.87
2019-05-14T22:20:50.746Z,7.74
2019-05-14T22:23:21.388Z,7.78
2019-05-14T22:25:50.854Z,7.74
2019-05-14T22:28:20.297Z,7.70
2019-05-14T22:30:49.735Z,7.78
2019-05-14T22:33:19.321Z,7.52
2019-05-14T22:35:48.946Z,7.41
2019-05-14T22:38:20.357Z,7.29
2019-05-14T22:40:49.938Z,7.29
2019-05-14T22:43:19.407Z,7.15
2019-05-14T22:46:09.641Z,7.03
2019-05-14T22:48:39.106Z,6.97
2019-05-14T22:51:08.796Z,6.87
2019-05-14T22:53:39.011Z,6.87
2019-05-14T22:56:08.602Z,6.96
2019-05-14T22:58:38.490Z,7.04
2019-05-14T23:01:14.736Z,6.94
2019-05-14T23:03:39.887Z,7.10
2019-05-14T23:06:09.323Z,7.00
2019-05-14T23:08:39.284Z,6.95
2019-05-14T23:11:08.875Z,6.88
2019-05-14T23:13:39.149Z,7.00
2019-05-14T23:16:09.055Z,6.99
2019-05-14T23:18:38.464Z,7.04
2019-05-14T23:21:09.117Z,7.04
2019-05-14T23:23:39.393Z,6.96
2019-05-14T23:26:08.944Z,7.15
2019-05-14T23:28:44.744Z,6.98
2019-05-14T23:31:09.510Z,6.96
2019-05-14T23:33:39.087Z,6.82
2019-05-14T23:36:08.922Z,6.71
2019-05-14T23:38:44.905Z,6.69
2019-05-14T23:41:14.474Z,6.67
2019-05-14T23:43:48.425Z,6.75
2019-05-14T23:46:18.306Z,6.72
2019-05-14T23:48:48.609Z,6.59
2019-05-14T23:51:18.395Z,6.60
2019-05-14T23:53:48.376Z,6.69
2019-05-14T23:56:19.427Z,6.72
2019-05-14T23:58:55.694Z,6.70
